createdAt,value
2022-11-25T19:10:37.576Z,8.50
2022-11-25T19:13:28.270Z,10.53
2022-11-25T19:16:17.661Z,12.30
2022-11-25T19:19:20.349Z,10.77
2022-11-25T19:22:11.162Z,13.70
2022-11-25T19:24:58.522Z,14.97
2022-11-25T19:27:50.876Z,14.83
2022-11-25T19:30:38.069Z,15.07
2022-11-25T19:33:53.720Z,11.33
2022-11-25T19:36:46.526Z,18.40
2022-11-25T19:39:36.132Z,15.30
2022-11-25T19:42:24.955Z,15.90
2022-11-25T19:45:14.991Z,12.97
2022-11-25T19:48:06.893Z,12.80
2022-11-25T19:58:58.022Z,13.53
2022-11-25T20:02:14.493Z,10.83
2022-11-25T20:05:09.693Z,13.30
2022-11-25T20:07:59.332Z,13.63
2022-11-25T20:10:46.550Z,16.90
2022-11-25T20:13:33.934Z,15.47
2022-11-25T20:16:24.638Z,12.67
2022-11-25T20:19:17.017Z,11.00
2022-11-25T20:22:04.598Z,13.00
2022-11-25T20:24:54.847Z,19.87
2022-11-25T20:27:41.982Z,15.10
2022-11-25T20:30:58.246Z,18.17
2022-11-25T20:33:47.776Z,16.30
2022-11-25T20:36:40.694Z,16.47
2022-11-25T20:39:27.569Z,16.23
2022-11-25T20:52:38.611Z,15.17
2022-11-25T20:55:26.520Z,23.67
2022-11-25T20:58:20.102Z,25.67
2022-11-25T21:01:07.024Z,19.80
2022-11-25T21:03:53.881Z,30.73
2022-11-25T21:06:41.250Z,25.43
2022-11-25T21:09:32.659Z,25.10
2022-11-25T21:12:19.869Z,22.00
2022-11-25T21:15:12.871Z,21.43
2022-11-25T21:17:59.733Z,23.07
2022-11-25T21:20:48.120Z,32.10
2022-11-25T21:24:13.668Z,22.10
2022-11-25T21:27:09.990Z,25.13
2022-11-25T21:30:14.524Z,22.20
2022-11-25T21:33:01.832Z,20.47
2022-11-25T21:35:50.075Z,18.40
2022-11-25T21:38:45.967Z,23.07
2022-11-25T21:41:30.885Z,20.13
2022-11-25T21:44:26.382Z,24.47
2022-11-25T21:47:15.254Z,21.70
2022-11-25T21:50:03.239Z,23.97
2022-11-25T21:52:50.334Z,27.87
2022-11-25T21:55:37.562Z,20.07
2022-11-25T21:58:28.036Z,22.53
2022-11-25T22:01:16.918Z,27.20
2022-11-25T22:04:04.254Z,21.87
2022-11-25T22:06:51.309Z,23.73
2022-11-25T22:09:38.614Z,28.97
2022-11-25T22:12:28.908Z,28.27
2022-11-25T22:15:18.646Z,26.80
2022-11-25T22:18:17.255Z,26.47
2022-11-25T22:21:04.484Z,23.97
2022-11-25T22:23:51.400Z,25.47
2022-11-25T22:26:38.365Z,23.10
2022-11-25T22:29:32.717Z,20.47
2022-11-25T22:32:19.774Z,21.00
2022-11-25T22:35:14.115Z,20.67
2022-11-25T22:38:01.590Z,16.77
2022-11-25T22:40:51.726Z,21.00
2022-11-25T22:43:45.380Z,21.40
2022-11-25T22:46:35.885Z,17.57
2022-11-25T22:49:30.711Z,19.83
2022-11-25T22:52:21.121Z,23.03
2022-11-25T22:55:16.881Z,20.50
2022-11-25T22:58:04.044Z,22.27
2022-11-25T23:00:51.937Z,21.40
2022-11-25T23:03:38.858Z,25.67
2022-11-25T23:06:26.571Z,19.87
2022-11-25T23:09:16.141Z,22.70
2022-11-25T23:12:03.381Z,15.37
2022-11-25T23:14:50.229Z,18.00
2022-11-25T23:17:37.077Z,23.90
2022-11-25T23:20:28.302Z,21.30
2022-11-25T23:23:18.132Z,20.23
2022-11-25T23:26:09.247Z,20.07
2022-11-25T23:28:56.095Z,19.13
2022-11-25T23:31:43.113Z,19.00
2022-11-25T23:34:30.190Z,24.00
2022-11-25T23:37:25.786Z,23.50
2022-11-25T23:40:19.186Z,19.43
2022-11-25T23:43:11.479Z,19.77
2022-11-25T23:45:58.447Z,22.47
2022-11-25T23:48:51.035Z,22.20
2022-11-25T23:51:37.914Z,15.83
2022-11-25T23:54:39.494Z,20.47
2022-11-25T23:57:31.563Z,21.80
